Time;durP1;ratioP1;P1;durP2;ratioP2;P2;SDS_P1;SDS_P2;PMS_P1;PMS_P2;Temp;Humidity;BMP_temperature;BMP_pressure;BME280_temperature;BME280_humidity;BME280_pressure;Samples;Min_cycle;Max_cycle;Signal;HPM_P1;HPM_P2
2022/02/20 00:01:11;;;;;;;1.20;1.00;;;6.60;93.20;;;;;;5134519;27;20956;-69
2022/02/20 00:03:38;;;;;;;1.20;1.10;;;6.50;93.10;;;;;;5134222;27;20521;-68
2022/02/20 00:06:06;;;;;;;1.20;1.00;;;6.60;93.50;;;;;;5134089;27;20486;-68
2022/02/20 00:08:33;;;;;;;1.20;1.00;;;6.70;93.40;;;;;;5134370;27;20470;-68
2022/02/20 00:11:00;;;;;;;1.20;0.90;;;6.60;93.50;;;;;;5131124;27;20450;-68
2022/02/20 00:13:27;;;;;;;1.20;1.00;;;6.60;93.80;;;;;;5134229;27;20981;-68
2022/02/20 00:15:56;;;;;;;1.20;1.00;;;6.60;95.00;;;;;;5134060;27;20460;-68
2022/02/20 00:18:23;;;;;;;57.13;1.83;;;6.60;94.10;;;;;;5126204;27;20520;-68
2022/02/20 00:20:53;;;;;;;1.20;1.00;;;6.70;94.10;;;;;;5131642;27;20869;-68
2022/02/20 00:23:20;;;;;;;1.20;0.90;;;6.70;95.10;;;;;;5134127;27;20587;-68
2022/02/20 00:25:48;;;;;;;1.20;1.00;;;6.60;95.40;;;;;;5133859;27;21072;-68
2022/02/20 00:28:15;;;;;;;1.20;1.00;;;6.60;95.70;;;;;;5134128;27;20492;-68
2022/02/20 00:30:43;;;;;;;1.20;1.00;;;6.60;95.80;;;;;;5133954;27;20485;-68
2022/02/20 00:33:12;;;;;;;1.20;1.00;;;6.60;95.80;;;;;;5133914;27;20461;-68
2022/02/20 00:35:39;;;;;;;1.20;1.10;;;6.60;96.20;;;;;;5133463;27;20520;-68
2022/02/20 00:38:07;;;;;;;1.20;1.00;;;6.60;96.30;;;;;;5133292;27;20488;-67
2022/02/20 00:40:35;;;;;;;1.20;1.00;;;6.70;96.10;;;;;;5133471;27;20491;-68
2022/02/20 00:43:02;;;;;;;1.20;0.90;;;6.70;96.50;;;;;;5133672;27;20453;-68
2022/02/20 00:45:30;;;;;;;1.20;1.00;;;6.70;96.50;;;;;;5133250;27;20548;-68
2022/02/20 00:47:57;;;;;;;4.73;1.37;;;6.70;96.80;;;;;;5133366;27;20925;-68
2022/02/20 00:50:27;;;;;;;1.20;0.90;;;6.60;97.60;;;;;;5133256;27;20486;-68
2022/02/20 00:52:54;;;;;;;1.20;1.07;;;6.60;97.60;;;;;;5132224;27;20455;-67
2022/02/20 00:55:21;;;;;;;1.20;0.90;;;6.60;98.00;;;;;;5128947;27;20507;-68
2022/02/20 00:57:48;;;;;;;1.20;1.00;;;6.60;98.00;;;;;;5133142;27;20490;-68
2022/02/20 01:00:15;;;;;;;1.20;1.00;;;6.60;98.00;;;;;;5133062;27;20525;-68
2022/02/20 01:02:43;;;;;;;1.20;1.00;;;6.60;98.00;;;;;;5133355;27;20494;-68
2022/02/20 01:05:12;;;;;;;1.20;0.90;;;6.50;98.00;;;;;;5132853;27;20551;-68
2022/02/20 01:07:41;;;;;;;1.20;1.00;;;6.50;98.00;;;;;;5132933;27;20475;-68
2022/02/20 01:10:10;;;;;;;1.20;0.90;;;6.50;98.00;;;;;;5133171;27;20582;-68
2022/02/20 01:12:37;;;;;;;1.20;0.90;;;6.50;98.00;;;;;;5133094;27;20492;-68
2022/02/20 01:15:06;;;;;;;1.20;1.00;;;6.50;98.00;;;;;;5131292;27;20933;-68
2022/02/20 01:17:33;;;;;;;1.20;0.90;;;6.40;98.00;;;;;;5133037;27;20599;-68
2022/02/20 01:20:01;;;;;;;1.40;1.10;;;6.40;98.00;;;;;;5132997;27;20488;-67
2022/02/20 01:22:28;;;;;;;1.20;1.00;;;6.40;98.00;;;;;;5132848;27;20582;-68
2022/02/20 01:24:57;;;;;;;1.20;1.00;;;6.40;98.00;;;;;;5132728;27;20489;-68
2022/02/20 01:27:25;;;;;;;1.20;1.00;;;6.40;98.00;;;;;;5132847;27;20506;-67
2022/02/20 01:29:52;;;;;;;1.20;1.00;;;6.40;98.00;;;;;;5132600;27;20488;-68
2022/02/20 01:32:21;;;;;;;1.20;1.00;;;6.40;98.00;;;;;;5132808;27;20440;-67
2022/02/20 01:34:48;;;;;;;1.20;1.00;;;6.40;98.00;;;;;;5132559;27;20463;-68
2022/02/20 01:37:15;;;;;;;1.20;1.00;;;6.40;98.00;;;;;;5132551;27;20883;-69
2022/02/20 01:39:42;;;;;;;1.20;1.00;;;6.40;98.00;;;;;;5130729;27;20494;-68
2022/02/20 01:42:10;;;;;;;1.20;1.00;;;6.40;98.00;;;;;;5132416;27;20863;-67
2022/02/20 01:44:38;;;;;;;1.20;1.00;;;6.40;98.00;;;;;;5132450;27;20481;-68
2022/02/20 01:47:07;;;;;;;1.20;0.90;;;6.40;98.00;;;;;;5132190;27;21026;-68
2022/02/20 01:49:35;;;;;;;1.20;0.90;;;6.40;98.00;;;;;;5132507;27;20487;-68
2022/02/20 01:52:02;;;;;;;1.20;1.00;;;6.40;98.00;;;;;;5132528;27;20479;-68
2022/02/20 01:54:29;;;;;;;1.97;1.00;;;6.40;98.00;;;;;;5132240;27;20454;-67
2022/02/20 01:56:57;;;;;;;1.20;1.00;;;6.40;98.00;;;;;;5132082;27;20858;-68
2022/02/20 01:59:26;;;;;;;1.20;1.00;;;6.30;98.00;;;;;;5132087;27;20990;-68
2022/02/20 02:01:56;;;;;;;1.20;1.00;;;6.30;98.00;;;;;;5132388;27;20510;-68
2022/02/20 02:04:24;;;;;;;1.40;1.20;;;6.30;98.00;;;;;;5123123;28;20459;-68
2022/02/20 02:06:51;;;;;;;1.20;1.00;;;6.40;98.00;;;;;;5132458;27;20538;-67
2022/02/20 02:09:19;;;;;;;1.30;1.00;;;6.30;98.00;;;;;;5132257;27;20501;-67
2022/02/20 02:11:48;;;;;;;1.20;1.00;;;6.30;98.00;;;;;;5132627;27;20451;-68
2022/02/20 02:14:15;;;;;;;1.20;1.10;;;6.40;98.00;;;;;;5132260;27;20456;-67
2022/02/20 02:16:44;;;;;;;1.20;1.00;;;6.40;98.00;;;;;;5130849;27;20488;-68
2022/02/20 02:19:11;;;;;;;2.37;1.57;;;6.30;98.00;;;;;;5134881;27;20908;-67
2022/02/20 02:21:39;;;;;;;1.20;1.00;;;6.30;98.00;;;;;;5136313;27;20461;-68
2022/02/20 02:24:09;;;;;;;1.20;1.00;;;6.30;98.00;;;;;;5136211;27;20595;-68
2022/02/20 02:26:37;;;;;;;1.20;1.00;;;6.30;98.00;;;;;;5136277;27;20462;-68
2022/02/20 02:29:04;;;;;;;1.20;0.90;;;6.30;98.00;;;;;;5135993;27;20480;-67
2022/02/20 02:31:33;;;;;;;1.90;1.57;;;6.30;98.00;;;;;;5136063;27;20472;-68
2022/02/20 02:34:00;;;;;;;1.20;0.90;;;6.30;98.00;;;;;;5135916;27;20445;-67
2022/02/20 02:36:27;;;;;;;1.20;1.00;;;6.30;98.00;;;;;;5135983;27;20448;-68
2022/02/20 02:38:54;;;;;;;1.20;1.00;;;6.30;98.00;;;;;;5135657;27;20491;-68
2022/02/20 02:41:23;;;;;;;1.20;0.90;;;6.30;98.00;;;;;;5136178;27;20540;-67
2022/02/20 02:43:52;;;;;;;1.20;1.00;;;6.30;98.00;;;;;;5136102;27;20854;-68
2022/02/20 02:46:20;;;;;;;1.20;1.00;;;6.30;98.00;;;;;;5135771;27;20481;-67
2022/02/20 02:48:49;;;;;;;1.20;1.00;;;6.30;98.00;;;;;;5135906;27;20459;-67
2022/02/20 02:51:17;;;;;;;1.20;1.00;;;6.30;98.00;;;;;;5135832;27;20452;-68
2022/02/20 02:53:44;;;;;;;1.20;1.00;;;6.30;98.00;;;;;;5134101;27;20589;-67
2022/02/20 02:56:11;;;;;;;1.20;1.10;;;6.30;98.00;;;;;;5134463;27;20531;-67
2022/02/20 02:58:42;;;;;;;1.20;1.00;;;6.30;98.00;;;;;;5135762;27;20507;-67
2022/02/20 03:01:09;;;;;;;2.13;1.37;;;6.30;98.00;;;;;;5135594;27;20453;-67
2022/02/20 03:03:36;;;;;;;1.67;1.13;;;6.30;98.00;;;;;;5134503;27;20863;-67
2022/02/20 03:06:08;;;;;;;1.50;1.20;;;6.30;98.00;;;;;;5135383;27;20537;-68
2022/02/20 03:08:35;;;;;;;1.20;1.00;;;6.30;98.00;;;;;;5135283;27;20492;-67
2022/02/20 03:11:03;;;;;;;1.20;1.00;;;6.30;98.00;;;;;;5135195;27;20519;-67
2022/02/20 03:13:33;;;;;;;1.33;1.10;;;6.30;98.00;;;;;;5134954;27;20451;-67
2022/02/20 03:16:02;;;;;;;1.20;1.00;;;6.30;98.00;;;;;;5132768;27;20462;-67
2022/02/20 03:18:31;;;;;;;1.50;1.10;;;6.40;98.00;;;;;;5134347;27;20533;-67
2022/02/20 03:20:59;;;;;;;1.20;1.00;;;6.40;98.00;;;;;;5134535;27;20451;-68
2022/02/20 03:23:28;;;;;;;1.20;0.97;;;6.30;98.00;;;;;;5134864;27;20491;-68
2022/02/20 03:25:55;;;;;;;1.20;1.07;;;6.40;98.00;;;;;;5134527;27;20517;-68
2022/02/20 03:28:24;;;;;;;1.20;1.00;;;6.40;98.00;;;;;;5133443;27;20459;-67
2022/02/20 03:30:52;;;;;;;1.20;1.00;;;6.40;98.00;;;;;;5135086;27;20547;-68
2022/02/20 03:33:22;;;;;;;1.20;1.00;;;6.30;98.00;;;;;;5135007;27;20454;-68
2022/02/20 03:35:49;;;;;;;1.20;1.00;;;6.40;98.00;;;;;;5134917;27;20454;-67
2022/02/20 03:38:16;;;;;;;1.20;1.00;;;6.40;98.00;;;;;;5134973;27;20479;-67
2022/02/20 03:40:43;;;;;;;1.20;1.00;;;6.40;98.00;;;;;;5134712;27;20564;-67
2022/02/20 03:43:12;;;;;;;1.20;1.00;;;6.40;98.00;;;;;;5134999;27;20545;-67
2022/02/20 03:45:39;;;;;;;1.20;1.00;;;6.40;98.00;;;;;;5133430;27;20484;-68
2022/02/20 03:48:06;;;;;;;1.20;1.10;;;6.40;98.00;;;;;;5134833;27;20489;-68
2022/02/20 03:50:35;;;;;;;1.20;0.97;;;6.40;98.00;;;;;;5134913;27;20495;-67
2022/02/20 03:53:02;;;;;;;1.20;1.00;;;6.50;98.00;;;;;;5134761;27;20538;-67
2022/02/20 03:55:29;;;;;;;1.13;1.00;;;6.50;98.00;;;;;;5134644;27;21867;-67
2022/02/20 03:57:57;;;;;;;1.40;1.10;;;6.50;98.00;;;;;;5130863;27;20548;-67
2022/02/20 04:00:27;;;;;;;1.20;0.93;;;6.50;98.00;;;;;;5133965;27;20489;-67
2022/02/20 04:02:54;;;;;;;1.20;0.97;;;6.50;98.00;;;;;;5134391;27;20460;-67
2022/02/20 04:05:21;;;;;;;1.20;1.00;;;6.50;98.00;;;;;;5134213;27;20538;-67
2022/02/20 04:07:50;;;;;;;1.30;1.20;;;6.50;98.00;;;;;;5134167;27;20462;-67
2022/02/20 04:10:17;;;;;;;1.20;1.00;;;6.60;98.00;;;;;;5133934;27;20484;-68
2022/02/20 04:12:45;;;;;;;1.20;1.00;;;6.60;98.00;;;;;;5134207;27;20508;-67
2022/02/20 04:15:12;;;;;;;1.20;1.00;;;6.60;98.00;;;;;;5132528;27;20528;-67
2022/02/20 04:17:40;;;;;;;1.20;1.00;;;6.60;98.00;;;;;;5134179;27;20488;-68
2022/02/20 04:20:08;;;;;;;1.20;0.90;;;6.60;98.00;;;;;;5133862;27;20489;-68
2022/02/20 04:22:35;;;;;;;1.20;1.00;;;6.60;98.00;;;;;;5133779;27;20490;-68
2022/02/20 04:25:04;;;;;;;1.20;1.00;;;6.70;98.00;;;;;;5133995;27;20863;-67
2022/02/20 04:27:31;;;;;;;1.20;1.00;;;6.60;98.00;;;;;;5131790;27;20550;-67
2022/02/20 04:29:58;;;;;;;1.20;1.00;;;6.60;98.00;;;;;;5133739;27;21002;-67
2022/02/20 04:32:25;;;;;;;1.20;1.00;;;6.60;98.00;;;;;;5133942;27;20563;-68
2022/02/20 04:34:52;;;;;;;1.20;1.00;;;6.60;98.00;;;;;;5133682;27;20984;-67
2022/02/20 04:37:19;;;;;;;1.20;1.00;;;6.60;98.00;;;;;;5125389;27;20479;-67
2022/02/20 04:39:46;;;;;;;1.20;0.90;;;6.60;98.00;;;;;;5133473;27;21407;-67
2022/02/20 04:42:16;;;;;;;1.20;1.00;;;6.60;98.00;;;;;;5132888;27;20597;-68
2022/02/20 04:44:44;;;;;;;1.20;1.00;;;6.50;98.00;;;;;;5132600;27;20864;-68
2022/02/20 04:47:11;;;;;;;1.20;1.00;;;6.50;98.00;;;;;;5133688;27;20541;-67
2022/02/20 04:49:38;;;;;;;1.20;1.00;;;6.50;98.00;;;;;;5133786;27;20809;-68
2022/02/20 04:52:05;;;;;;;1.20;1.00;;;6.50;98.00;;;;;;5133720;27;20489;-67
2022/02/20 04:54:32;;;;;;;1.20;1.00;;;6.50;98.00;;;;;;5133205;27;20537;-68
2022/02/20 04:56:59;;;;;;;1.20;1.00;;;6.50;98.00;;;;;;5133233;27;20478;-68
2022/02/20 04:59:27;;;;;;;1.20;0.90;;;6.40;98.00;;;;;;5132838;27;20569;-68
2022/02/20 05:01:54;;;;;;;1.20;1.00;;;6.40;98.00;;;;;;5131358;27;20537;-67
2022/02/20 05:04:22;;;;;;;1.20;1.00;;;6.40;98.00;;;;;;5132949;27;20489;-68
2022/02/20 05:06:48;;;;;;;1.20;1.00;;;6.40;98.00;;;;;;5133254;27;20492;-68
2022/02/20 05:09:15;;;;;;;2.07;1.10;;;6.30;98.00;;;;;;5132750;27;20450;-68
2022/02/20 05:11:43;;;;;;;1.20;1.00;;;6.30;98.00;;;;;;5133067;27;20454;-67
2022/02/20 05:14:10;;;;;;;1.20;1.00;;;6.20;98.00;;;;;;5130596;27;20964;-67
2022/02/20 05:16:39;;;;;;;1.20;0.93;;;6.20;98.00;;;;;;5132937;27;20861;-67
2022/02/20 05:19:08;;;;;;;1.20;1.00;;;6.10;98.00;;;;;;5132867;27;20462;-68
2022/02/20 05:21:35;;;;;;;1.17;0.93;;;6.20;98.00;;;;;;5132815;27;20511;-68
2022/02/20 05:24:02;;;;;;;1.20;1.00;;;6.20;98.00;;;;;;5132795;27;20487;-68
2022/02/20 05:26:29;;;;;;;1.20;1.00;;;6.20;98.00;;;;;;5132781;27;20492;-67
2022/02/20 05:28:56;;;;;;;1.20;1.00;;;6.20;98.00;;;;;;5131519;27;20494;-67
2022/02/20 05:31:23;;;;;;;1.20;0.90;;;6.20;98.00;;;;;;5132378;27;20492;-67
2022/02/20 05:33:51;;;;;;;1.20;0.90;;;6.20;98.00;;;;;;5132730;27;20476;-67
2022/02/20 05:36:18;;;;;;;1.20;1.00;;;6.20;98.00;;;;;;5132620;27;20477;-67
2022/02/20 05:38:45;;;;;;;1.20;1.10;;;6.20;98.00;;;;;;5130859;27;21133;-67
2022/02/20 05:41:13;;;;;;;1.20;1.00;;;6.20;98.00;;;;;;5132843;27;20520;-68
2022/02/20 05:43:40;;;;;;;1.23;1.10;;;6.30;98.00;;;;;;5131395;27;20538;-67
2022/02/20 05:46:07;;;;;;;1.20;1.00;;;6.30;98.00;;;;;;5132340;27;20456;-67
2022/02/20 05:48:34;;;;;;;1.20;1.00;;;6.30;98.00;;;;;;5132707;27;20506;-67
2022/02/20 05:51:03;;;;;;;1.20;0.90;;;6.30;98.00;;;;;;5132246;27;20452;-68
2022/02/20 05:53:31;;;;;;;1.20;1.00;;;6.30;98.00;;;;;;5132239;27;20501;-68
2022/02/20 05:55:58;;;;;;;1.20;1.00;;;6.40;98.00;;;;;;5131722;27;20496;-68
2022/02/20 05:58:25;;;;;;;1.20;1.07;;;6.40;98.00;;;;;;5132387;27;20554;-68
2022/02/20 06:00:52;;;;;;;1.20;1.00;;;6.30;98.00;;;;;;5132286;27;20522;-67
2022/02/20 06:03:19;;;;;;;1.20;0.90;;;6.40;98.00;;;;;;5131174;27;20965;-68
2022/02/20 06:05:46;;;;;;;1.20;1.00;;;6.30;98.00;;;;;;5132184;27;20507;-67
2022/02/20 06:08:14;;;;;;;1.20;1.00;;;6.30;98.00;;;;;;5132122;27;20499;-68
2022/02/20 06:10:42;;;;;;;1.20;1.00;;;6.30;98.00;;;;;;5132388;28;20485;-67
2022/02/20 06:13:10;;;;;;;1.20;1.00;;;6.30;98.00;;;;;;5132154;27;20542;-68
2022/02/20 06:15:39;;;;;;;1.10;0.90;;;6.30;98.00;;;;;;5131897;27;20580;-68
2022/02/20 06:18:09;;;;;;;1.20;1.00;;;6.30;98.00;;;;;;5132388;27;20478;-68
2022/02/20 06:20:36;;;;;;;1.17;0.90;;;6.30;98.00;;;;;;5131983;27;20612;-68
2022/02/20 06:23:03;;;;;;;1.20;0.90;;;6.30;98.00;;;;;;5131373;27;20483;-68
2022/02/20 06:25:32;;;;;;;1.20;1.00;;;6.40;98.00;;;;;;5132253;27;20856;-68
2022/02/20 06:27:59;;;;;;;1.20;1.10;;;6.40;98.00;;;;;;5132129;27;20478;-68
2022/02/20 06:30:27;;;;;;;1.20;1.00;;;6.40;98.00;;;;;;5132255;27;20488;-67
2022/02/20 06:32:54;;;;;;;1.20;1.00;;;6.40;98.00;;;;;;5130673;27;20458;-68
2022/02/20 06:35:21;;;;;;;1.20;1.00;;;6.40;98.00;;;;;;5127520;27;20501;-68
2022/02/20 06:37:48;;;;;;;1.20;1.00;;;6.40;98.00;;;;;;5132185;27;20536;-68
2022/02/20 06:40:16;;;;;;;1.20;1.00;;;6.50;98.00;;;;;;5131726;27;20546;-68
2022/02/20 06:42:44;;;;;;;1.20;1.00;;;6.60;98.00;;;;;;5131781;27;20515;-68
2022/02/20 06:45:13;;;;;;;1.20;0.90;;;6.50;98.00;;;;;;5131829;27;20540;-68
2022/02/20 06:47:40;;;;;;;1.10;0.90;;;6.60;98.00;;;;;;5131738;27;20542;-68
2022/02/20 06:50:08;;;;;;;1.20;1.00;;;6.60;98.00;;;;;;5131786;27;20485;-68
2022/02/20 06:52:35;;;;;;;1.30;1.10;;;6.60;98.00;;;;;;5131798;27;20476;-68
2022/02/20 06:55:02;;;;;;;1.20;1.00;;;6.70;98.00;;;;;;5131680;27;20891;-68
2022/02/20 06:57:34;;;;;;;1.20;1.00;;;6.70;98.00;;;;;;5131772;27;20888;-68
2022/02/20 07:00:02;;;;;;;1.20;1.00;;;6.70;98.00;;;;;;5131759;27;20531;-68
2022/02/20 07:02:29;;;;;;;1.20;1.00;;;6.70;98.00;;;;;;5131958;27;20534;-68
2022/02/20 07:04:56;;;;;;;1.30;1.20;;;6.70;98.00;;;;;;5134206;27;20850;-68
2022/02/20 07:07:23;;;;;;;1.20;1.00;;;6.80;98.00;;;;;;5135642;27;20478;-68
2022/02/20 07:09:50;;;;;;;4.93;2.10;;;6.70;98.00;;;;;;5135277;27;20548;-68
2022/02/20 07:12:17;;;;;;;1.20;0.90;;;6.80;98.00;;;;;;5135663;27;20506;-67
2022/02/20 07:14:44;;;;;;;1.20;0.93;;;6.70;98.00;;;;;;5135429;27;20543;-68
2022/02/20 07:17:17;;;;;;;1.20;1.00;;;6.80;98.00;;;;;;5135419;27;20493;-68
2022/02/20 07:19:44;;;;;;;1.20;1.00;;;6.70;98.00;;;;;;5130352;27;20459;-68
2022/02/20 07:22:11;;;;;;;1.20;1.00;;;6.70;98.00;;;;;;5135420;27;20506;-68
2022/02/20 07:24:38;;;;;;;1.20;1.07;;;6.80;98.00;;;;;;5135096;27;20490;-68
2022/02/20 07:27:06;;;;;;;1.20;1.00;;;6.80;98.00;;;;;;5134947;27;20464;-68
2022/02/20 07:29:33;;;;;;;1.20;0.97;;;6.80;98.00;;;;;;5134941;27;20498;-68
2022/02/20 07:32:00;;;;;;;1.20;1.00;;;6.80;98.00;;;;;;5135003;27;20526;-68
2022/02/20 07:34:28;;;;;;;1.20;1.00;;;6.90;98.00;;;;;;5133923;27;20482;-68
2022/02/20 07:36:55;;;;;;;1.20;1.00;;;6.90;98.00;;;;;;5134823;27;20856;-68
2022/02/20 07:39:22;;;;;;;1.20;0.90;;;6.90;98.00;;;;;;5134808;27;20486;-68
2022/02/20 07:41:49;;;;;;;1.33;1.20;;;6.90;98.00;;;;;;5134570;27;20580;-68
2022/02/20 07:44:16;;;;;;;1.20;0.90;;;6.90;98.00;;;;;;5134658;27;20516;-68
2022/02/20 07:46:44;;;;;;;1.20;0.90;;;7.00;98.00;;;;;;5134619;27;20467;-67
2022/02/20 07:49:12;;;;;;;1.20;0.90;;;7.00;98.00;;;;;;5134733;27;20545;-67
2022/02/20 07:51:40;;;;;;;1.20;1.00;;;7.10;98.00;;;;;;5133641;27;21015;-68
2022/02/20 07:54:07;;;;;;;1.20;0.90;;;7.10;98.00;;;;;;5134643;27;20499;-68
2022/02/20 07:56:34;;;;;;;1.20;0.90;;;7.10;98.00;;;;;;5134202;27;20567;-68
2022/02/20 07:59:01;;;;;;;1.20;0.90;;;7.10;98.00;;;;;;5133314;27;20451;-68
2022/02/20 08:01:31;;;;;;;1.20;0.93;;;7.20;98.00;;;;;;5134351;27;20562;-68
2022/02/20 08:03:59;;;;;;;1.20;1.00;;;7.20;98.00;;;;;;5134531;27;20452;-68
2022/02/20 08:06:26;;;;;;;1.20;0.90;;;7.30;98.00;;;;;;5134574;27;20889;-68
2022/02/20 08:08:54;;;;;;;1.20;0.90;;;7.40;98.00;;;;;;5134516;27;20908;-68
2022/02/20 08:11:21;;;;;;;1.20;1.00;;;7.40;98.00;;;;;;5134369;27;20454;-68
2022/02/20 08:13:48;;;;;;;1.20;0.90;;;7.50;98.00;;;;;;5134503;27;20536;-68
2022/02/20 08:16:16;;;;;;;1.20;1.00;;;7.50;98.00;;;;;;5134028;27;20465;-68
2022/02/20 08:18:45;;;;;;;1.20;1.00;;;7.60;98.00;;;;;;5134109;27;20456;-68
2022/02/20 08:21:12;;;;;;;1.20;1.00;;;7.70;98.00;;;;;;5133875;27;20558;-68
2022/02/20 08:23:39;;;;;;;1.20;0.90;;;7.70;98.00;;;;;;5134019;27;20477;-68
2022/02/20 08:26:08;;;;;;;1.20;0.90;;;7.70;98.00;;;;;;5133604;27;20498;-67
2022/02/20 08:28:35;;;;;;;1.20;1.00;;;7.80;98.00;;;;;;5133436;27;20454;-68
2022/02/20 08:31:03;;;;;;;1.20;1.00;;;7.80;98.00;;;;;;5133032;27;20456;-67
2022/02/20 08:33:31;;;;;;;1.20;0.90;;;7.80;98.00;;;;;;5133091;27;20992;-68
2022/02/20 08:35:59;;;;;;;1.20;0.90;;;7.80;98.00;;;;;;5133129;27;20454;-67
2022/02/20 08:38:26;;;;;;;1.20;0.90;;;7.80;98.00;;;;;;5133673;27;20490;-69
2022/02/20 08:40:53;;;;;;;1.20;0.90;;;7.90;98.00;;;;;;5133637;27;20834;-69
2022/02/20 08:43:21;;;;;;;1.20;1.00;;;8.00;98.00;;;;;;5131600;27;20515;-68
2022/02/20 08:45:50;;;;;;;1.20;0.90;;;8.00;98.00;;;;;;5133363;27;20534;-68
2022/02/20 08:48:17;;;;;;;1.20;1.00;;;8.10;98.00;;;;;;5133514;27;20652;-68
2022/02/20 08:50:44;;;;;;;1.20;1.00;;;8.10;98.00;;;;;;5133525;27;20554;-68
2022/02/20 08:53:12;;;;;;;1.20;0.93;;;8.00;98.00;;;;;;5133594;27;20450;-68
2022/02/20 08:55:39;;;;;;;1.20;1.00;;;7.90;98.00;;;;;;5133323;27;20916;-68
2022/02/20 08:58:08;;;;;;;1.20;1.00;;;8.00;98.00;;;;;;5133438;27;20449;-68
2022/02/20 09:00:38;;;;;;;1.20;0.90;;;8.10;98.00;;;;;;5133248;27;20931;-68
2022/02/20 09:03:08;;;;;;;1.20;0.90;;;8.10;98.00;;;;;;5133415;27;20459;-67
2022/02/20 09:05:36;;;;;;;1.20;1.00;;;8.10;98.00;;;;;;5132027;27;20548;-68
2022/02/20 09:08:03;;;;;;;1.20;0.90;;;8.10;98.00;;;;;;5132744;27;20488;-68
2022/02/20 09:10:30;;;;;;;1.20;1.00;;;8.20;98.00;;;;;;5132694;27;20503;-67
2022/02/20 09:12:57;;;;;;;1.20;1.00;;;8.30;98.00;;;;;;5131476;27;20461;-68
2022/02/20 09:15:27;;;;;;;1.20;1.00;;;8.30;98.00;;;;;;5132408;27;20529;-68
2022/02/20 09:17:55;;;;;;;1.20;1.00;;;8.30;98.00;;;;;;5133126;27;20454;-67
2022/02/20 09:20:25;;;;;;;1.20;1.00;;;8.40;98.00;;;;;;5133152;27;20571;-68
2022/02/20 09:22:54;;;;;;;1.20;0.90;;;8.50;98.00;;;;;;5131673;27;20517;-68
2022/02/20 09:25:21;;;;;;;1.20;1.00;;;8.50;98.00;;;;;;5132447;27;20528;-68
2022/02/20 09:27:48;;;;;;;1.20;1.00;;;8.50;98.00;;;;;;5132162;27;20452;-68
2022/02/20 09:30:15;;;;;;;1.50;1.10;;;8.50;98.00;;;;;;5131673;27;20541;-67
2022/02/20 09:32:43;;;;;;;1.20;1.00;;;8.50;98.00;;;;;;5129334;27;20492;-68
2022/02/20 09:35:12;;;;;;;1.20;1.00;;;8.60;98.00;;;;;;5132176;27;20508;-67
2022/02/20 09:37:40;;;;;;;1.20;1.00;;;8.60;98.00;;;;;;5132171;27;20482;-68
2022/02/20 09:40:10;;;;;;;1.60;1.20;;;8.70;98.00;;;;;;5132254;27;20502;-68
2022/02/20 09:42:37;;;;;;;1.20;0.97;;;8.70;98.00;;;;;;5132025;27;20515;-68
2022/02/20 09:45:05;;;;;;;1.20;1.00;;;8.70;98.00;;;;;;5131688;27;20488;-67
2022/02/20 09:47:37;;;;;;;1.20;1.00;;;8.60;98.00;;;;;;5131989;27;20813;-68
2022/02/20 09:50:05;;;;;;;1.40;1.10;;;8.60;98.00;;;;;;5131977;27;20506;-67
2022/02/20 09:52:34;;;;;;;1.20;1.00;;;8.70;98.00;;;;;;5130694;27;20450;-68
2022/02/20 09:55:01;;;;;;;1.20;0.93;;;8.70;98.00;;;;;;5131979;27;20454;-68
2022/02/20 09:57:28;;;;;;;1.20;1.00;;;8.80;98.00;;;;;;5131495;27;20503;-68
2022/02/20 09:59:55;;;;;;;1.20;1.00;;;8.80;98.00;;;;;;5131825;27;20958;-68
2022/02/20 10:02:25;;;;;;;1.60;1.20;;;8.80;98.00;;;;;;5132018;27;20484;-67
2022/02/20 10:04:53;;;;;;;1.20;0.90;;;8.80;98.00;;;;;;5132001;27;20961;-68
2022/02/20 10:07:29;;;;;;;1.20;1.20;;;8.90;98.00;;;;;;5131916;27;20462;-68
2022/02/20 10:09:59;;;;;;;1.20;1.00;;;9.00;98.00;;;;;;5131795;27;20842;-67
2022/02/20 10:12:28;;;;;;;1.20;1.00;;;9.10;98.00;;;;;;5131785;27;20480;-68
2022/02/20 10:14:55;;;;;;;1.20;0.90;;;9.10;98.00;;;;;;5131710;27;20443;-67
2022/02/20 10:17:25;;;;;;;1.20;1.13;;;9.20;98.00;;;;;;5130197;27;21018;-67
2022/02/20 10:19:54;;;;;;;1.20;0.90;;;9.30;98.00;;;;;;5131793;27;20453;-68
2022/02/20 10:22:30;;;;;;;1.20;1.00;;;9.30;98.00;;;;;;5131557;27;20507;-67
2022/02/20 10:25:08;;;;;;;1.20;0.90;;;9.30;98.00;;;;;;5131679;27;20553;-67
2022/02/20 10:27:49;;;;;;;1.20;1.00;;;9.40;98.00;;;;;;5131628;27;20988;-67
2022/02/20 10:30:19;;;;;;;1.20;1.00;;;9.40;98.00;;;;;;5128533;27;20822;-67
2022/02/20 10:33:02;;;;;;;1.20;0.90;;;9.40;98.00;;;;;;5121724;27;20502;-67
2022/02/20 10:35:32;;;;;;;1.20;1.00;;;9.40;98.00;;;;;;5121251;27;20464;-68
2022/02/20 10:38:05;;;;;;;1.20;1.00;;;9.50;98.00;;;;;;5116252;27;20460;-67
2022/02/20 10:40:41;;;;;;;1.20;0.90;;;9.50;98.00;;;;;;5113417;28;20461;-66
2022/02/20 10:43:23;;;;;;;1.20;0.90;;;9.60;98.00;;;;;;5092718;28;20492;-68
2022/02/20 10:45:51;;;;;;;1.30;1.13;;;9.70;98.00;;;;;;5102999;28;20978;-68
2022/02/20 10:48:20;;;;;;;1.20;0.97;;;9.60;98.00;;;;;;5102144;28;20483;-67
2022/02/20 10:50:58;;;;;;;1.20;1.00;;;9.70;98.00;;;;;;5093061;28;20491;-67
2022/02/20 10:53:32;;;;;;;1.20;0.97;;;9.70;98.00;;;;;;5108941;28;20777;-68
2022/02/20 10:56:01;;;;;;;1.20;0.90;;;9.80;98.00;;;;;;5110311;28;20528;-68
2022/02/20 10:58:30;;;;;;;1.20;0.90;;;9.90;98.00;;;;;;5110033;28;20460;-68
2022/02/20 11:00:58;;;;;;;1.20;1.00;;;10.00;98.00;;;;;;5109671;28;20554;-66
2022/02/20 11:03:27;;;;;;;1.20;1.00;;;10.00;98.00;;;;;;5107311;28;21185;-67
2022/02/20 11:05:56;;;;;;;1.20;1.00;;;10.20;98.00;;;;;;5094820;28;20556;-67
2022/02/20 11:08:26;;;;;;;1.20;1.00;;;10.30;98.00;;;;;;5105984;28;20484;-68
2022/02/20 11:10:54;;;;;;;1.20;0.90;;;10.30;98.00;;;;;;5094865;28;20994;-68
2022/02/20 11:13:25;;;;;;;1.20;0.90;;;10.30;98.00;;;;;;5088288;28;20462;-68
2022/02/20 11:15:54;;;;;;;1.20;1.00;;;10.30;98.00;;;;;;5093756;28;20450;-68
2022/02/20 11:18:22;;;;;;;1.20;1.00;;;10.40;98.00;;;;;;5102773;28;20452;-68
2022/02/20 11:20:51;;;;;;;1.20;1.00;;;10.40;98.00;;;;;;5100794;28;20967;-67
2022/02/20 11:23:23;;;;;;;1.20;0.90;;;10.60;98.00;;;;;;5095413;28;20565;-68
2022/02/20 11:25:52;;;;;;;1.20;1.10;;;10.60;98.00;;;;;;5100594;28;20487;-68
2022/02/20 11:28:19;;;;;;;1.20;0.90;;;10.70;98.00;;;;;;5110092;28;20933;-68
2022/02/20 11:30:48;;;;;;;1.20;1.03;;;10.70;98.00;;;;;;5104863;28;20464;-68
2022/02/20 11:33:15;;;;;;;1.20;1.00;;;10.70;98.00;;;;;;5100457;28;20464;-68
2022/02/20 11:35:44;;;;;;;1.20;1.00;;;10.60;98.00;;;;;;5092422;28;20545;-68
2022/02/20 11:38:14;;;;;;;1.20;1.00;;;10.50;98.00;;;;;;5102197;28;20509;-68
2022/02/20 11:41:02;;;;;;;1.20;1.00;;;10.40;98.00;;;;;;5097237;28;20465;-68
2022/02/20 11:43:44;;;;;;;1.20;1.00;;;10.40;98.00;;;;;;5109238;28;20560;-67
2022/02/20 11:46:15;;;;;;;1.20;1.00;;;10.40;98.00;;;;;;5092400;28;20546;-67
2022/02/20 11:49:28;;;;;;;1.67;1.10;;;10.40;98.00;;;;;;5095177;28;20530;-68
2022/02/20 11:52:03;;;;;;;1.20;0.90;;;10.50;98.00;;;;;;5050705;28;20839;-68
2022/02/20 11:54:32;;;;;;;1.20;1.00;;;10.60;98.00;;;;;;5031555;28;20454;-68
2022/02/20 11:57:28;;;;;;;1.20;1.00;;;10.60;98.00;;;;;;5076341;28;20594;-68
2022/02/20 12:00:20;;;;;;;1.20;1.00;;;10.60;98.00;;;;;;5092322;28;20532;-68
2022/02/20 12:03:06;;;;;;;1.57;1.30;;;10.60;98.00;;;;;;5109031;28;20490;-68
2022/02/20 12:05:35;;;;;;;1.20;1.00;;;10.70;98.00;;;;;;5101328;28;20490;-68
2022/02/20 12:08:06;;;;;;;1.20;0.90;;;10.60;98.00;;;;;;5094356;28;20459;-67
2022/02/20 12:10:47;;;;;;;1.20;0.93;;;10.70;98.00;;;;;;5100788;28;20452;-67
2022/02/20 12:13:32;;;;;;;1.20;1.00;;;10.60;98.00;;;;;;5108158;28;20462;-67
2022/02/20 12:16:24;;;;;;;1.20;1.00;;;10.60;98.00;;;;;;5109450;28;20518;-68
2022/02/20 12:19:12;;;;;;;1.20;1.10;;;10.70;98.00;;;;;;5109414;28;21047;-68
2022/02/20 12:22:07;;;;;;;1.20;1.00;;;10.80;98.00;;;;;;5102281;28;20992;-68
2022/02/20 12:24:53;;;;;;;1.30;1.20;;;10.90;98.00;;;;;;5091616;28;20464;-68
2022/02/20 12:27:23;;;;;;;1.20;1.00;;;10.90;98.00;;;;;;5099824;28;20451;-67
2022/02/20 12:29:53;;;;;;;1.20;1.00;;;11.00;98.00;;;;;;5100013;28;20467;-68
2022/02/20 12:32:26;;;;;;;2.73;1.67;;;11.00;98.00;;;;;;5101817;28;20496;-68
2022/02/20 12:35:03;;;;;;;1.20;0.90;;;11.10;98.00;;;;;;5105585;28;20548;-68
2022/02/20 12:37:33;;;;;;;1.20;0.90;;;11.10;98.00;;;;;;5091100;28;20487;-68
2022/02/20 12:40:03;;;;;;;1.20;1.00;;;11.00;98.00;;;;;;5105568;28;20521;-68
2022/02/20 12:42:32;;;;;;;1.20;1.00;;;11.00;98.00;;;;;;5109930;28;20515;-68
2022/02/20 12:45:07;;;;;;;1.20;1.00;;;11.00;98.00;;;;;;5103604;28;20516;-68
2022/02/20 12:47:37;;;;;;;1.20;1.00;;;11.00;98.00;;;;;;5097717;28;20458;-69
2022/02/20 12:50:07;;;;;;;1.20;1.00;;;10.90;98.00;;;;;;5091388;28;20483;-69
2022/02/20 12:52:36;;;;;;;1.20;0.93;;;10.90;98.00;;;;;;5106306;28;20972;-68
2022/02/20 12:55:05;;;;;;;1.20;1.00;;;10.90;98.00;;;;;;5091380;28;20504;-68
2022/02/20 12:57:36;;;;;;;1.20;1.10;;;11.00;98.00;;;;;;5097261;28;20565;-68
2022/02/20 13:00:07;;;;;;;1.20;1.00;;;11.10;98.00;;;;;;5101183;28;20843;-68
2022/02/20 13:02:37;;;;;;;1.20;1.00;;;11.20;98.00;;;;;;5098246;28;20497;-68
2022/02/20 13:05:15;;;;;;;1.20;1.00;;;11.40;98.00;;;;;;5100337;28;20517;-68